Time;durP1;ratioP1;P1;durP2;ratioP2;P2;SDS_P1;SDS_P2;PMS_P1;PMS_P2;Temp;Humidity;BMP_temperature;BMP_pressure;BME280_temperature;BME280_humidity;BME280_pressure;Samples;Min_cycle;Max_cycle;Signal;HPM_P1;HPM_P2
2023/03/07 12:54:16;;;;;;;266.75;192.93;;;;;;;20.69;42.05;100025.78;5131135;27;20140;-45
2023/03/07 12:57:06;;;;;;;256.25;185.18;;;;;;;21.72;39.93;100015.53;5109503;28;20123;-45
2023/03/07 12:59:36;;;;;;;262.40;184.23;;;;;;;22.38;38.22;100004.63;5111251;28;20089;-45
2023/03/07 13:02:14;;;;;;;262.00;184.70;;;;;;;22.96;37.10;99995.22;5109862;28;20020;-47
2023/03/07 13:04:42;;;;;;;269.02;187.23;;;;;;;23.34;36.16;99998.78;5110875;28;20479;-45
2023/03/07 13:07:15;;;;;;;264.33;186.65;;;;;;;23.54;35.39;99990.06;5109490;28;20149;-46
2023/03/07 13:09:45;;;;;;;260.33;184.57;;;;;;;23.62;35.22;99990.94;5110624;28;20020;-45
2023/03/07 13:12:15;;;;;;;267.48;188.18;;;;;;;23.78;35.20;99990.03;5109002;28;20020;-47
2023/03/07 13:14:44;;;;;;;268.27;186.25;;;;;;;23.92;34.54;99994.38;5110686;28;20016;-45
2023/03/07 13:17:33;;;;;;;265.85;188.57;;;;;;;23.93;34.81;99973.41;5109456;28;20464;-46
2023/03/07 13:20:03;;;;;;;270.75;190.20;;;;;;;24.01;34.66;99994.38;5107434;28;20036;-47
2023/03/07 13:22:32;;;;;;;274.88;192.93;;;;;;;23.99;34.71;99984.78;5110549;28;20195;-45
2023/03/07 13:25:21;;;;;;;270.73;190.73;;;;;;;23.95;34.43;99982.13;5110747;28;20028;-47
2023/03/07 13:27:51;;;;;;;271.95;193.55;;;;;;;23.95;34.88;99981.28;5110514;28;20035;-46
2023/03/07 13:30:25;;;;;;;279.98;195.45;;;;;;;24.03;34.38;99973.44;5109903;28;20526;-47
2023/03/07 13:32:54;;;;;;;273.60;197.88;;;;;;;24.01;34.48;99970.81;5110303;28;20115;-45
2023/03/07 13:35:32;;;;;;;272.20;193.73;;;;;;;24.04;34.72;99975.19;5110047;28;20028;-47
2023/03/07 13:38:03;;;;;;;268.55;188.90;;;;;;;24.03;34.40;99966.44;5109510;28;20028;-45
2023/03/07 13:40:52;;;;;;;274.13;192.27;;;;;;;24.00;34.36;99963.81;5109900;28;20500;-46
2023/03/07 13:43:20;;;;;;;257.80;182.95;;;;;;;23.99;34.60;99963.84;5110372;28;20035;-47
2023/03/07 13:46:02;;;;;;;274.23;196.90;;;;;;;24.04;34.21;99944.59;5109879;28;20385;-45
2023/03/07 13:48:30;;;;;;;274.95;192.82;;;;;;;23.95;34.25;99942.00;5109279;28;20055;-47
2023/03/07 13:50:59;;;;;;;267.00;189.35;;;;;;;23.99;34.35;99948.13;5110221;28;20019;-44
2023/03/07 13:53:29;;;;;;;265.27;191.68;;;;;;;23.94;34.59;99946.34;5108004;28;20051;-47
2023/03/07 13:56:16;;;;;;;265.17;192.63;;;;;;;23.93;34.75;99957.69;5108598;28;20119;-46
2023/03/07 13:58:56;;;;;;;265.75;188.15;;;;;;;23.93;34.43;99954.22;5109739;28;20024;-45
2023/03/07 14:01:32;;;;;;;263.40;194.27;;;;;;;23.99;34.17;99950.72;5108072;28;20062;-47
2023/03/07 14:04:06;;;;;;;265.67;190.02;;;;;;;23.99;34.45;99940.25;5104098;28;20020;-46
2023/03/07 14:06:54;;;;;;;280.98;197.55;;;;;;;24.00;34.62;99947.25;5094636;28;20437;-45
2023/03/07 14:09:37;;;;;;;269.50;189.98;;;;;;;23.97;34.23;99949.00;5088706;28;20401;-45
2023/03/07 14:12:28;;;;;;;274.13;198.25;;;;;;;23.97;34.46;99940.28;5095429;28;20027;-46
2023/03/07 14:15:00;;;;;;;274.10;197.73;;;;;;;23.99;34.36;99935.91;5091769;28;20052;-46
2023/03/07 14:18:02;;;;;;;262.30;190.07;;;;;;;23.92;34.71;99928.91;5095661;28;20042;-45
2023/03/07 14:20:40;;;;;;;264.10;184.32;;;;;;;23.79;34.48;99921.09;5095712;28;20028;-45
2023/03/07 14:23:47;;;;;;;275.95;196.80;;;;;;;23.69;34.62;99915.88;5095438;28;20024;-45
2023/03/07 14:26:20;;;;;;;262.30;182.15;;;;;;;23.75;34.62;99921.97;5094453;28;20380;-46
2023/03/07 14:29:03;;;;;;;238.98;173.18;;;;;;;23.71;34.83;99916.75;5094662;28;20462;-45
2023/03/07 14:31:41;;;;;;;235.82;169.70;;;;;;;23.77;34.73;99912.34;5092071;28;20028;-45
2023/03/07 14:34:28;;;;;;;239.00;166.98;;;;;;;23.74;34.49;99911.50;5085119;28;20064;-46
2023/03/07 14:37:01;;;;;;;244.30;169.88;;;;;;;23.74;34.34;99914.97;5082552;28;20024;-47
2023/03/07 14:39:39;;;;;;;237.20;165.45;;;;;;;23.80;34.19;99920.22;5085315;28;20052;-46
2023/03/07 14:42:25;;;;;;;236.73;168.30;;;;;;;23.47;34.63;99876.63;5085760;28;20034;-45
2023/03/07 14:45:01;;;;;;;244.27;166.23;;;;;;;23.64;34.46;99924.59;5081589;28;20032;-45
2023/03/07 14:47:35;;;;;;;237.70;165.73;;;;;;;23.65;34.46;99922.88;5084530;28;20025;-46
2023/03/07 14:50:25;;;;;;;232.43;163.90;;;;;;;23.65;34.68;99925.47;5088544;28;20023;-45
2023/03/07 14:52:58;;;;;;;230.45;157.57;;;;;;;23.64;34.78;99908.03;5079674;28;20056;-45
2023/03/07 14:55:31;;;;;;;233.30;160.02;;;;;;;23.58;34.68;99897.56;5083423;28;20024;-45
2023/03/07 14:58:00;;;;;;;233.50;159.60;;;;;;;23.60;34.70;99893.19;5083825;28;20032;-45
2023/03/07 15:00:29;;;;;;;222.82;154.52;;;;;;;23.56;34.72;99894.06;5088713;28;20046;-46
2023/03/07 15:03:03;;;;;;;232.68;159.48;;;;;;;23.50;34.76;99887.97;5083325;28;20482;-45
2023/03/07 15:05:42;;;;;;;225.35;159.27;;;;;;;23.51;34.78;99886.22;5083643;28;20028;-45
2023/03/07 15:08:29;;;;;;;215.18;152.27;;;;;;;23.50;34.56;99882.72;5081202;28;20111;-45
2023/03/07 15:11:12;;;;;;;226.38;156.10;;;;;;;23.45;35.22;99886.22;5081751;28;20032;-45
2023/03/07 15:14:00;;;;;;;230.98;163.60;;;;;;;23.46;35.02;99886.25;5085248;28;20110;-46
2023/03/07 15:16:34;;;;;;;228.27;158.35;;;;;;;23.46;34.82;99874.88;5079613;28;20107;-46
2023/03/07 15:19:12;;;;;;;231.80;161.02;;;;;;;23.47;35.01;99869.69;5083310;28;20343;-46
2023/03/07 15:21:44;;;;;;;236.75;163.45;;;;;;;23.45;34.79;99881.00;5085261;28;20016;-46
2023/03/07 15:24:45;;;;;;;222.00;160.00;;;;;;;23.42;34.73;99876.66;5080417;28;20039;-46
2023/03/07 15:27:16;;;;;;;238.32;165.95;;;;;;;23.41;35.03;99888.00;5080938;28;20024;-46
2023/03/07 15:29:49;;;;;;;243.07;164.45;;;;;;;23.41;34.95;99874.91;5084112;28;20435;-47
2023/03/07 15:32:38;;;;;;;225.82;155.80;;;;;;;23.46;35.11;99873.16;5081024;28;20036;-46
2023/03/07 15:35:09;;;;;;;240.77;163.60;;;;;;;23.39;35.07;99871.41;5077254;28;20098;-47
2023/03/07 15:37:53;;;;;;;235.27;163.93;;;;;;;23.42;35.10;99866.19;5082151;28;20116;-46
2023/03/07 15:40:32;;;;;;;229.23;162.43;;;;;;;23.44;35.07;99869.69;5080509;28;20082;-46
2023/03/07 15:43:05;;;;;;;230.20;158.20;;;;;;;23.42;35.11;99865.28;5082800;28;20028;-46
2023/03/07 15:45:34;;;;;;;221.10;160.15;;;;;;;23.42;35.02;99855.72;5083739;28;20496;-48
2023/03/07 15:48:10;;;;;;;243.50;168.85;;;;;;;23.38;34.96;99861.81;5082757;28;20064;-47
2023/03/07 15:50:39;;;;;;;237.75;164.23;;;;;;;23.42;34.97;99855.72;5090033;28;20043;-46
2023/03/07 15:53:09;;;;;;;225.50;158.85;;;;;;;23.33;35.26;99855.75;5083293;28;20067;-49
2023/03/07 15:55:39;;;;;;;232.38;165.63;;;;;;;23.31;35.38;99853.13;5082061;28;20035;-47
2023/03/07 15:58:14;;;;;;;244.10;170.60;;;;;;;23.21;35.39;99840.94;5083901;28;20025;-46
2023/03/07 16:00:43;;;;;;;238.63;162.18;;;;;;;23.35;35.02;99848.75;5080917;28;20048;-47
2023/03/07 16:03:30;;;;;;;243.73;169.30;;;;;;;23.36;34.96;99842.63;5082223;28;20051;-46
2023/03/07 16:06:00;;;;;;;233.93;168.98;;;;;;;23.40;35.39;99846.13;5081003;28;20123;-46
2023/03/07 16:08:29;;;;;;;237.30;168.80;;;;;;;23.38;35.26;99845.25;5082622;28;20056;-46
2023/03/07 16:11:01;;;;;;;247.55;172.73;;;;;;;23.35;35.30;99833.94;5083028;28;20028;-48
2023/03/07 16:13:32;;;;;;;251.75;177.80;;;;;;;23.35;35.13;99826.06;5081937;28;20090;-46
2023/03/07 16:16:04;;;;;;;231.73;167.05;;;;;;;23.25;35.11;99818.25;5082475;28;20047;-48
2023/03/07 16:18:33;;;;;;;245.70;175.20;;;;;;;23.24;35.67;99816.50;5081088;28;20553;-46
2023/03/07 16:21:02;;;;;;;240.98;170.55;;;;;;;23.26;35.71;99820.00;5082362;28;20035;-46
2023/03/07 16:23:31;;;;;;;241.55;170.25;;;;;;;23.29;35.50;99817.38;5081688;28;20441;-46
2023/03/07 16:26:00;;;;;;;251.93;173.43;;;;;;;23.18;35.98;99818.22;5082650;28;20035;-46
2023/03/07 16:28:29;;;;;;;241.85;172.25;;;;;;;23.21;35.37;99809.53;5079857;28;20025;-46
2023/03/07 16:30:58;;;;;;;250.43;175.02;;;;;;;23.14;35.88;99810.38;5086853;28;20063;-43
2023/03/07 16:33:27;;;;;;;251.57;173.98;;;;;;;23.04;35.92;99805.19;5093169;28;20161;-44
2023/03/07 16:35:55;;;;;;;251.35;178.73;;;;;;;23.08;35.97;99803.41;5093120;28;20032;-45
2023/03/07 16:38:23;;;;;;;252.98;175.23;;;;;;;23.16;35.92;99804.28;5093228;28;20111;-45
2023/03/07 16:40:52;;;;;;;239.52;169.80;;;;;;;23.18;35.85;99802.50;5093159;28;20256;-45
2023/03/07 16:43:40;;;;;;;246.60;168.30;;;;;;;23.21;35.79;99806.91;5093135;28;20039;-49
2023/03/07 16:46:14;;;;;;;249.77;172.25;;;;;;;23.17;35.47;99798.16;5091907;28;20020;-46
2023/03/07 16:48:43;;;;;;;245.27;173.63;;;;;;;23.25;35.43;99797.31;5093123;28;20032;-44
2023/03/07 16:51:17;;;;;;;285.23;193.50;;;;;;;23.22;35.46;99787.72;5092184;28;20031;-45
2023/03/07 16:53:47;;;;;;;293.88;204.82;;;;;;;23.23;35.87;99780.75;5084494;28;20413;-45
2023/03/07 16:56:26;;;;;;;301.58;209.35;;;;;;;23.22;35.68;99790.34;5080523;28;20517;-45
2023/03/07 16:58:54;;;;;;;302.52;212.23;;;;;;;23.38;35.45;99775.47;5080482;28;20036;-46
2023/03/07 17:01:23;;;;;;;291.77;204.27;;;;;;;23.45;35.36;99785.03;5081339;28;20032;-47
2023/03/07 17:03:54;;;;;;;289.02;204.38;;;;;;;23.47;35.53;99780.69;5079841;28;20123;-45
2023/03/07 17:06:21;;;;;;;291.42;201.82;;;;;;;23.47;35.78;99782.41;5082175;28;20493;-45
2023/03/07 17:08:51;;;;;;;292.70;201.00;;;;;;;23.56;35.49;99779.78;5080413;28;20067;-46
2023/03/07 17:11:23;;;;;;;290.77;199.25;;;;;;;23.60;35.34;99784.09;5087579;28;20380;-45
2023/03/07 17:13:54;;;;;;;279.08;198.68;;;;;;;23.66;35.48;99784.09;5083901;28;20110;-47
2023/03/07 17:16:22;;;;;;;293.60;207.57;;;;;;;23.61;35.58;99790.22;5083658;28;20077;-46
2023/03/07 17:18:50;;;;;;;299.75;207.05;;;;;;;23.61;35.28;99788.47;5081985;28;20024;-50
2023/03/07 17:21:20;;;;;;;275.67;193.02;;;;;;;23.61;35.20;99792.84;5031788;28;20464;-46
2023/03/07 17:23:48;;;;;;;256.70;179.98;;;;;;;23.56;35.45;99785.00;5031434;28;20034;-49
2023/03/07 17:26:26;;;;;;;265.95;185.65;;;;;;;23.51;35.73;99778.91;5032253;28;20369;-48
2023/03/07 17:28:53;;;;;;;259.42;179.60;;;;;;;23.57;35.28;99773.66;5031727;28;20052;-47
2023/03/07 17:31:21;;;;;;;251.30;171.25;;;;;;;23.50;35.24;99764.09;5033155;28;20041;-48
2023/03/07 17:33:48;;;;;;;237.55;166.95;;;;;;;23.47;35.53;99770.22;5038283;28;20033;-49
2023/03/07 17:36:15;;;;;;;242.57;169.07;;;;;;;23.51;35.80;99769.28;5036388;28;20084;-49
2023/03/07 17:38:43;;;;;;;267.70;170.07;;;;;;;23.57;35.72;99759.69;5039876;28;20036;-49
2023/03/07 17:41:11;;;;;;;262.42;170.32;;;;;;;23.56;35.38;99753.59;5046442;28;20387;-46
2023/03/07 17:43:38;;;;;;;263.13;170.02;;;;;;;23.62;35.48;99752.69;5034668;28;20045;-47
2023/03/07 17:46:11;;;;;;;243.20;168.10;;;;;;;23.65;35.32;99750.06;5044782;28;20037;-46
2023/03/07 17:48:40;;;;;;;231.57;159.50;;;;;;;23.71;35.31;99757.88;5044330;28;20060;-46
2023/03/07 17:51:09;;;;;;;243.55;167.23;;;;;;;23.79;35.15;99737.78;5042891;28;20483;-48
2023/03/07 17:53:39;;;;;;;232.68;163.52;;;;;;;23.85;35.38;99735.97;5043948;28;20164;-47
2023/03/07 17:56:08;;;;;;;254.85;168.27;;;;;;;23.96;35.42;99742.03;5045006;28;20028;-46
2023/03/07 17:58:37;;;;;;;237.27;159.70;;;;;;;23.99;35.27;99733.31;5042696;28;20037;-47
2023/03/07 18:01:07;;;;;;;248.23;168.43;;;;;;;23.99;35.37;99736.81;5045053;28;20104;-47
2023/03/07 18:03:35;;;;;;;251.98;172.90;;;;;;;24.11;34.94;99727.97;5043468;28;20482;-47
2023/03/07 18:06:02;;;;;;;237.02;161.93;;;;;;;24.07;35.21;99729.75;5045607;28;20044;-47
2023/03/07 18:08:30;;;;;;;248.90;168.95;;;;;;;24.12;35.40;99721.84;5042356;28;20037;-47
2023/03/07 18:11:08;;;;;;;249.93;165.68;;;;;;;24.15;34.99;99721.00;5043067;28;20075;-47
2023/03/07 18:13:36;;;;;;;246.18;166.90;;;;;;;24.17;35.10;99722.69;5043475;28;20029;-46
2023/03/07 18:16:04;;;;;;;241.63;165.65;;;;;;;24.16;35.31;99710.47;5045424;28;20104;-48
2023/03/07 18:18:33;;;;;;;244.02;165.80;;;;;;;24.22;35.06;99701.69;5042032;28;20363;-45
2023/03/07 18:21:04;;;;;;;231.18;158.93;;;;;;;24.22;35.32;99699.06;5041270;28;20108;-47
2023/03/07 18:23:33;;;;;;;250.10;165.82;;;;;;;24.28;35.14;99699.03;5036883;28;20033;-47
2023/03/07 18:26:03;;;;;;;228.93;160.85;;;;;;;24.38;34.87;99700.69;5034051;28;20449;-48
2023/03/07 18:28:32;;;;;;;237.63;160.20;;;;;;;24.42;35.06;99685.78;5034208;28;20038;-46
2023/03/07 18:31:02;;;;;;;245.80;165.82;;;;;;;24.43;34.75;99685.81;5037916;28;20028;-47
2023/03/07 18:33:30;;;;;;;233.70;159.65;;;;;;;24.50;34.56;99685.72;5036697;28;20549;-48
2023/03/07 18:35:58;;;;;;;228.40;158.00;;;;;;;24.59;34.57;99698.75;5032877;28;20131;-48
2023/03/07 18:38:26;;;;;;;235.70;157.88;;;;;;;24.57;34.73;99693.50;5037254;28;20044;-47
2023/03/07 18:41:04;;;;;;;238.63;161.80;;;;;;;24.58;34.73;99697.03;5032566;28;20142;-48
2023/03/07 18:43:32;;;;;;;221.68;151.70;;;;;;;24.58;34.45;99687.38;5035056;28;20033;-46
2023/03/07 18:45:59;;;;;;;251.02;166.40;;;;;;;24.66;34.49;99683.84;5032253;28;20091;-47
2023/03/07 18:48:26;;;;;;;244.20;166.30;;;;;;;24.61;34.62;99683.00;5033376;28;20108;-48
2023/03/07 18:50:59;;;;;;;229.80;156.38;;;;;;;24.68;34.86;99682.91;5035700;28;20025;-48
2023/03/07 18:53:27;;;;;;;232.50;160.50;;;;;;;24.76;34.94;99675.00;5039353;28;20060;-48
2023/03/07 18:55:54;;;;;;;244.73;162.25;;;;;;;24.84;34.79;99670.56;5033903;28;20029;-49
2023/03/07 18:58:22;;;;;;;235.15;162.15;;;;;;;24.82;34.60;99668.84;5034150;28;20112;-47
2023/03/07 19:00:50;;;;;;;242.73;165.23;;;;;;;24.83;34.82;99679.31;5018216;28;20028;-47
2023/03/07 19:03:17;;;;;;;244.43;164.00;;;;;;;24.79;34.75;99672.34;5034177;28;20033;-47
2023/03/07 19:05:46;;;;;;;233.90;163.40;;;;;;;24.84;34.97;99672.28;5034076;28;20109;-47
2023/03/07 19:08:16;;;;;;;241.18;164.93;;;;;;;24.88;34.74;99674.00;5034216;28;20394;-47
2023/03/07 19:10:44;;;;;;;251.77;171.10;;;;;;;24.93;34.94;99679.19;5033639;28;20035;-47
2023/03/07 19:13:11;;;;;;;249.07;170.18;;;;;;;24.88;34.92;99676.63;5033988;28;20032;-48
2023/03/07 19:15:38;;;;;;;239.95;166.82;;;;;;;24.87;35.22;99661.78;5033932;28;20025;-47
2023/03/07 19:18:06;;;;;;;238.63;163.65;;;;;;;24.82;34.98;99667.09;5038250;28;20030;-47
2023/03/07 19:20:33;;;;;;;245.27;168.60;;;;;;;24.87;35.23;99667.03;5033520;28;20053;-48
2023/03/07 19:23:01;;;;;;;245.77;167.18;;;;;;;24.87;35.36;99665.28;5033490;28;20055;-47
2023/03/07 19:25:30;;;;;;;238.73;169.73;;;;;;;24.88;35.15;99663.50;5032442;28;20121;-47
2023/03/07 19:27:57;;;;;;;247.40;166.60;;;;;;;24.92;35.36;99664.34;5033459;28;20057;-49
2023/03/07 19:30:25;;;;;;;245.93;166.68;;;;;;;24.97;35.08;99662.53;5033640;28;20029;-46
2023/03/07 19:32:52;;;;;;;250.30;172.48;;;;;;;24.91;35.35;99662.59;5034380;28;20048;-49
2023/03/07 19:35:20;;;;;;;247.18;172.07;;;;;;;24.94;35.31;99668.72;5032943;28;20387;-49
2023/03/07 19:37:47;;;;;;;235.80;163.25;;;;;;;24.96;34.98;99651.19;5034164;28;20078;-48
2023/03/07 19:40:14;;;;;;;251.20;166.10;;;;;;;25.02;35.18;99643.22;5034111;28;20467;-48
2023/03/07 19:42:42;;;;;;;239.57;165.20;;;;;;;24.99;35.01;99634.53;5033865;28;20037;-48
2023/03/07 19:45:10;;;;;;;242.30;165.77;;;;;;;25.06;34.88;99641.47;5032690;28;20028;-47
2023/03/07 19:47:37;;;;;;;244.00;164.40;;;;;;;25.07;35.08;99635.28;5032999;28;20108;-49
2023/03/07 19:50:04;;;;;;;249.27;169.23;;;;;;;25.02;34.96;99627.50;5032645;28;20032;-49
2023/03/07 19:52:31;;;;;;;236.73;167.30;;;;;;;25.02;34.92;99611.75;5033722;28;20057;-47
2023/03/07 19:54:59;;;;;;;242.57;166.65;;;;;;;25.09;34.78;99612.53;5033640;28;20022;-50
2023/03/07 19:57:26;;;;;;;255.75;167.82;;;;;;;25.02;34.96;99600.41;5033650;28;20494;-49
2023/03/07 19:59:55;;;;;;;249.60;174.27;;;;;;;25.01;34.81;99606.53;5033803;28;20471;-49
2023/03/07 20:02:22;;;;;;;249.77;169.30;;;;;;;24.96;35.33;99598.72;5032637;28;20106;-50
2023/03/07 20:04:51;;;;;;;246.57;173.00;;;;;;;25.01;35.01;99598.66;5033610;28;20026;-46
2023/03/07 20:07:18;;;;;;;254.18;174.40;;;;;;;24.98;35.44;99596.97;5033536;28;20546;-45
2023/03/07 20:09:46;;;;;;;253.68;173.07;;;;;;;25.02;35.27;99585.50;5033390;28;20025;-48
2023/03/07 20:12:13;;;;;;;235.70;166.48;;;;;;;24.99;35.02;99576.81;5033271;28;20029;-47
2023/03/07 20:14:43;;;;;;;251.60;175.07;;;;;;;25.04;34.81;99577.63;5033404;28;20475;-46
2023/03/07 20:17:12;;;;;;;256.13;175.57;;;;;;;25.00;34.97;99565.44;5033453;28;20475;-48
2023/03/07 20:19:39;;;;;;;257.67;174.25;;;;;;;24.97;35.04;99562.84;5033365;28;20441;-47
